createdAt,value
2019-02-03T00:03:55.484Z,100441.61
2019-02-03T00:06:21.354Z,100444.19
2019-02-03T00:08:47.111Z,100448.05
2019-02-03T00:11:14.774Z,100454.55
2019-02-03T00:13:40.535Z,100460.36
2019-02-03T00:16:06.302Z,100465.61
2019-02-03T00:18:32.070Z,100469.12
2019-02-03T00:21:17.738Z,100472.09
2019-02-03T00:23:43.791Z,100472.09
2019-02-03T00:26:09.552Z,100479.95
2019-02-03T00:28:35.308Z,100471.81
2019-02-03T00:31:01.086Z,100481.08
2019-02-03T00:33:26.834Z,100473.58
2019-02-03T00:35:52.606Z,100479.09
2019-02-03T00:38:23.149Z,100489.38
2019-02-03T00:40:46.012Z,100496.67
2019-02-03T00:43:11.787Z,100499.52
2019-02-03T00:45:37.537Z,100498.63
2019-02-03T00:48:03.411Z,100494.41
2019-02-03T00:53:36.366Z,100498.55
2019-02-03T00:56:02.330Z,100507.42
2019-02-03T00:58:28.101Z,100510.58
2019-02-03T01:00:53.937Z,100506.36
2019-02-03T01:03:19.756Z,100508.70
2019-02-03T01:05:45.506Z,100514.92
2019-02-03T01:08:13.370Z,100519.18
2019-02-03T01:10:39.232Z,100526.53
2019-02-03T01:13:05.008Z,100531.49
2019-02-03T01:15:32.453Z,100531.22
2019-02-03T01:17:58.430Z,100538.33
2019-02-03T01:20:24.298Z,100538.95
2019-02-03T01:22:50.059Z,100539.53
2019-02-03T01:25:17.719Z,100540.62
2019-02-03T01:27:43.592Z,100535.39
2019-02-03T01:30:51.012Z,100537.65
2019-02-03T01:33:17.080Z,100543.16
2019-02-03T01:35:42.840Z,100541.84
2019-02-03T01:38:08.615Z,100546.38
2019-02-03T01:40:34.466Z,100548.95
2019-02-03T01:43:00.243Z,100550.63
2019-02-03T01:45:25.986Z,100550.28
2019-02-03T01:47:51.758Z,100554.97
2019-02-03T01:50:17.514Z,100562.59
2019-02-03T01:53:24.956Z,100550.43
2019-02-03T01:55:50.703Z,100552.58
2019-02-03T01:58:16.476Z,100545.27
2019-02-03T02:00:42.225Z,100544.77
2019-02-03T02:03:08.000Z,100534.98
2019-02-03T02:05:33.850Z,100531.28
2019-02-03T02:07:59.605Z,100533.31
2019-02-03T02:11:07.052Z,100536.23
2019-02-03T02:13:32.822Z,100539.25
2019-02-03T02:15:58.572Z,100549.25
2019-02-03T02:18:24.347Z,100554.69
2019-02-03T02:20:50.101Z,100568.20
2019-02-03T02:23:15.851Z,100576.65
2019-02-03T02:25:41.626Z,100579.57
2019-02-03T02:28:07.476Z,100581.55
2019-02-03T02:30:33.252Z,100585.03
2019-02-03T02:32:59.018Z,100586.36
2019-02-03T02:35:24.777Z,100591.17
2019-02-03T02:37:50.526Z,100588.05
2019-02-03T02:40:36.182Z,100577.69
2019-02-03T02:43:02.036Z,100576.71
2019-02-03T02:45:27.793Z,100576.36
2019-02-03T02:47:53.543Z,100590.44
2019-02-03T02:50:40.204Z,100601.69
2019-02-03T02:53:05.941Z,100602.80
2019-02-03T02:55:31.704Z,100611.60
2019-02-03T02:57:57.478Z,100617.89
2019-02-03T03:03:37.302Z,100634.89
2019-02-03T03:06:03.174Z,100632.30
2019-02-03T03:08:28.927Z,100634.63
2019-02-03T03:10:54.711Z,100639.00
2019-02-03T03:13:20.565Z,100651.60
2019-02-03T03:15:46.327Z,100651.45
2019-02-03T03:18:12.086Z,100647.73
2019-02-03T03:20:37.846Z,100652.58
2019-02-03T03:23:45.270Z,100640.53
2019-02-03T03:26:11.039Z,100647.88
2019-02-03T03:28:36.795Z,100653.36
2019-02-03T03:31:44.297Z,100651.86
2019-02-03T03:34:10.095Z,100663.61
2019-02-03T03:36:35.865Z,100669.75
2019-02-03T03:41:48.939Z,100667.15
2019-02-03T03:44:14.694Z,100668.69
2019-02-03T03:46:40.469Z,100662.72
2019-02-03T03:49:08.118Z,100677.42
2019-02-03T03:51:33.909Z,100681.14
2019-02-03T03:53:59.666Z,100684.88
2019-02-03T03:56:25.433Z,100704.69
2019-02-03T03:58:51.190Z,100717.83
2019-02-03T04:01:16.950Z,100723.86
2019-02-03T04:03:42.733Z,100734.70
2019-02-03T04:06:08.485Z,100731.21
2019-02-03T04:08:44.802Z,100731.36
2019-02-03T04:11:02.002Z,100738.47
2019-02-03T04:13:27.771Z,100738.00
2019-02-03T04:15:53.554Z,100744.64
2019-02-03T04:18:19.308Z,100737.64
2019-02-03T04:20:45.061Z,100759.58
2019-02-03T04:23:10.826Z,100756.05
2019-02-03T04:25:38.489Z,100756.66
2019-02-03T04:28:04.309Z,100745.67
2019-02-03T04:30:30.048Z,100737.23
2019-02-03T04:32:55.866Z,100734.34
2019-02-03T04:35:21.604Z,100748.63
2019-02-03T04:37:47.366Z,100734.98
2019-02-03T04:40:54.791Z,100733.01
2019-02-03T04:43:20.560Z,100725.54
2019-02-03T04:45:46.312Z,100731.97
2019-02-03T04:48:12.083Z,100731.97
2019-02-03T04:50:37.834Z,100738.33
2019-02-03T04:53:05.498Z,100751.28
2019-02-03T04:55:31.273Z,100759.98
2019-02-03T04:58:11.089Z,100765.08
2019-02-03T05:00:36.857Z,100767.02
2019-02-03T05:03:02.612Z,100766.19
2019-02-03T05:05:28.373Z,100764.98
2019-02-03T05:07:56.031Z,100763.29
2019-02-03T05:10:21.798Z,100757.98
2019-02-03T05:13:07.437Z,100762.86
2019-02-03T05:15:33.211Z,100762.86
2019-02-03T05:17:58.965Z,100767.56
2019-02-03T05:21:06.611Z,100775.17
2019-02-03T05:23:32.362Z,100775.03
2019-02-03T05:25:58.133Z,100795.52
2019-02-03T05:28:25.783Z,100791.90
2019-02-03T05:30:51.547Z,100795.41
2019-02-03T05:33:17.300Z,100799.61
2019-02-03T05:35:43.064Z,100807.08
2019-02-03T05:38:08.811Z,100809.02
2019-02-03T05:40:34.585Z,100810.95
2019-02-03T05:43:00.334Z,100816.63
2019-02-03T05:45:26.213Z,100815.51
2019-02-03T05:47:53.865Z,100825.67
2019-02-03T05:51:01.302Z,100827.82
2019-02-03T05:53:27.163Z,100830.34
2019-02-03T05:55:52.932Z,100855.47
2019-02-03T05:58:18.698Z,100864.02
2019-02-03T06:00:44.464Z,100893.38
2019-02-03T06:03:10.232Z,100905.80
2019-02-03T06:05:36.003Z,100904.97
2019-02-03T06:08:21.659Z,100896.39
2019-02-03T06:10:47.424Z,100896.39
2019-02-03T06:13:13.173Z,100888.56
2019-02-03T06:15:38.947Z,100885.44
2019-02-03T06:18:04.876Z,100876.14
2019-02-03T06:20:30.657Z,100878.66
2019-02-03T06:22:56.606Z,100877.47
2019-02-03T06:25:22.364Z,100881.45
2019-02-03T06:27:50.026Z,100900.38
2019-02-03T06:30:57.557Z,100911.01
2019-02-03T06:36:30.621Z,100912.01
2019-02-03T06:38:56.368Z,100917.79
2019-02-03T06:41:22.141Z,100912.84
2019-02-03T06:43:47.901Z,100912.45
2019-02-03T06:46:33.564Z,100925.73
2019-02-03T06:51:46.634Z,100942.28
2019-02-03T06:54:12.387Z,100953.98
2019-02-03T06:56:38.187Z,100951.69
2019-02-03T06:59:04.044Z,100953.02
2019-02-03T07:01:29.801Z,100964.48
2019-02-03T07:03:55.570Z,100968.11
2019-02-03T07:06:21.320Z,100974.39
2019-02-03T07:08:47.105Z,100972.70
2019-02-03T07:11:12.859Z,100966.06
2019-02-03T07:13:38.645Z,100970.88
2019-02-03T07:16:04.394Z,100971.73
2019-02-03T07:18:30.171Z,100972.34
2019-02-03T07:20:55.930Z,100986.95
2019-02-03T07:23:21.693Z,100981.42
2019-02-03T07:25:47.449Z,100981.06
2019-02-03T07:28:13.223Z,100988.31
2019-02-03T07:30:38.969Z,100986.12
2019-02-03T07:33:04.747Z,100991.58
2019-02-03T07:35:30.497Z,100996.41
2019-02-03T07:37:56.267Z,101002.95
2019-02-03T07:40:22.018Z,101007.89
2019-02-03T07:42:47.807Z,101011.16
2019-02-03T07:45:13.561Z,101002.47
2019-02-03T07:47:41.222Z,101007.92
2019-02-03T07:50:26.888Z,101013.95
2019-02-03T07:52:52.639Z,101017.08
2019-02-03T07:55:18.410Z,101032.66
2019-02-03T07:57:44.180Z,101031.13
2019-02-03T08:00:29.833Z,101035.70
2019-02-03T08:02:55.584Z,101044.04
2019-02-03T08:05:21.351Z,101045.61
2019-02-03T08:07:47.112Z,101036.31
2019-02-03T08:10:54.565Z,101049.12
2019-02-03T08:13:20.321Z,101048.02
2019-02-03T08:15:46.089Z,101059.23
2019-02-03T08:18:11.847Z,101064.66
2019-02-03T08:20:37.610Z,101068.13
2019-02-03T08:23:03.364Z,101073.09
2019-02-03T08:25:31.028Z,101064.39
2019-02-03T08:27:56.771Z,101084.53
2019-02-03T08:31:04.243Z,101089.84
2019-02-03T08:33:30.192Z,101093.20
2019-02-03T08:35:55.955Z,101097.06
2019-02-03T08:38:21.732Z,101099.72
2019-02-03T08:40:47.612Z,101106.70
2019-02-03T08:43:13.359Z,101117.20
2019-02-03T08:45:39.134Z,101115.60
2019-02-03T08:48:04.884Z,101127.33
2019-02-03T08:50:30.661Z,101128.29
2019-02-03T08:52:58.320Z,101131.05
2019-02-03T08:55:24.067Z,101137.06
2019-02-03T08:58:10.033Z,101140.66
2019-02-03T09:00:35.899Z,101144.66
2019-02-03T09:03:01.762Z,101143.55
2019-02-03T09:05:29.420Z,101141.72
2019-02-03T09:07:55.291Z,101151.00
2019-02-03T09:11:02.729Z,101157.30
2019-02-03T09:13:28.692Z,101162.08
2019-02-03T09:15:54.544Z,101161.97
2019-02-03T09:18:20.250Z,101166.34
2019-02-03T09:20:48.110Z,101167.53
2019-02-03T09:23:14.337Z,101176.23
2019-02-03T09:25:40.421Z,101175.38
2019-02-03T09:28:06.213Z,101184.16
2019-02-03T09:31:13.664Z,101185.37
2019-02-03T09:33:39.412Z,101183.27
2019-02-03T09:36:05.173Z,101186.03
2019-02-03T09:38:30.959Z,101180.41
2019-02-03T09:41:00.173Z,101187.50
2019-02-03T09:43:24.534Z,101180.42
2019-02-03T09:45:50.303Z,101181.32
2019-02-03T09:48:16.079Z,101184.55
2019-02-03T09:50:42.162Z,101186.92
2019-02-03T09:53:07.927Z,101191.23
2019-02-03T09:55:33.705Z,101192.13
2019-02-03T09:58:01.389Z,101188.19
2019-02-03T10:00:47.121Z,101188.56
2019-02-03T10:03:12.903Z,101192.50
2019-02-03T10:05:38.658Z,101197.74
2019-02-03T10:08:46.207Z,101192.24
2019-02-03T10:11:12.495Z,101192.19
2019-02-03T10:13:39.718Z,101197.52
2019-02-03T10:16:05.506Z,101201.07
2019-02-03T10:18:31.403Z,101209.16
2019-02-03T10:20:57.368Z,101208.84
2019-02-03T10:23:23.142Z,101217.14
2019-02-03T10:25:48.913Z,101216.79
2019-02-03T10:28:14.744Z,101225.86
2019-02-03T10:30:40.512Z,101227.67
2019-02-03T10:33:06.267Z,101237.06
2019-02-03T10:38:45.818Z,101245.18
2019-02-03T10:41:23.478Z,101249.25
2019-02-03T10:43:39.264Z,101255.83
2019-02-03T10:46:05.177Z,101258.88
2019-02-03T10:48:30.945Z,101257.98
2019-02-03T10:50:56.866Z,101257.06
2019-02-03T10:53:22.643Z,101260.80
2019-02-03T10:55:48.428Z,101265.50
2019-02-03T10:58:14.226Z,101259.80
2019-02-03T11:01:21.681Z,101267.88
2019-02-03T11:03:47.464Z,101273.09
2019-02-03T11:06:13.328Z,101271.35
2019-02-03T11:08:39.083Z,101282.09
2019-02-03T11:11:04.860Z,101280.75
2019-02-03T11:13:31.027Z,101281.54
2019-02-03T11:15:58.711Z,101285.19
2019-02-03T11:18:24.463Z,101285.61
2019-02-03T11:20:50.308Z,101283.56
2019-02-03T11:23:16.171Z,101292.95
2019-02-03T11:25:41.949Z,101300.17
2019-02-03T11:28:07.727Z,101298.81
2019-02-03T11:30:33.585Z,101308.39
2019-02-03T11:33:41.048Z,101314.58
2019-02-03T11:36:06.832Z,101320.09
2019-02-03T11:38:32.584Z,101323.55
2019-02-03T11:40:58.357Z,101315.97
2019-02-03T11:43:24.120Z,101319.04
2019-02-03T11:45:49.888Z,101321.89
2019-02-03T11:51:42.731Z,101323.11
2019-02-03T11:54:08.512Z,101334.78
2019-02-03T11:56:34.295Z,101337.31
2019-02-03T11:59:00.055Z,101263.63
2019-02-03T12:01:25.821Z,101331.55
2019-02-03T12:03:51.573Z,101334.55
2019-02-03T12:06:17.351Z,101335.64
2019-02-03T12:08:43.306Z,101334.64
2019-02-03T12:11:09.096Z,101330.08
2019-02-03T12:13:34.848Z,101344.08
2019-02-03T12:16:00.607Z,101341.33
2019-02-03T12:18:26.527Z,101351.69
2019-02-03T12:20:52.275Z,101353.77
2019-02-03T12:23:18.031Z,101355.87
2019-02-03T12:25:43.786Z,101358.40
2019-02-03T12:28:09.744Z,101363.27
2019-02-03T12:30:35.686Z,101359.17
2019-02-03T12:33:43.117Z,101356.50
2019-02-03T12:36:08.881Z,101355.39
2019-02-03T12:38:34.652Z,101364.32
2019-02-03T12:41:20.304Z,101367.77
2019-02-03T12:43:46.083Z,101367.77
2019-02-03T12:46:12.251Z,101372.84
2019-02-03T12:48:38.027Z,101378.34
2019-02-03T12:51:03.808Z,101377.39
2019-02-03T12:53:29.584Z,101375.42
2019-02-03T12:55:55.332Z,101383.55
2019-02-03T12:58:21.119Z,101388.87
2019-02-03T13:00:49.441Z,101389.02
2019-02-03T13:03:14.647Z,101385.75
2019-02-03T13:05:40.406Z,101400.66
2019-02-03T13:08:06.186Z,101395.23
2019-02-03T13:11:13.636Z,101403.59
2019-02-03T13:13:39.412Z,101403.33
2019-02-03T13:16:05.262Z,101411.96
2019-02-03T13:18:31.024Z,101406.37
2019-02-03T13:20:56.783Z,101404.53
2019-02-03T13:23:22.598Z,101412.90
2019-02-03T13:25:48.373Z,101419.11
2019-02-03T13:28:14.168Z,101418.78
2019-02-03T13:31:21.606Z,101420.47
2019-02-03T13:33:47.393Z,101416.81
2019-02-03T13:36:13.328Z,101416.19
2019-02-03T13:38:39.040Z,101404.00
2019-02-03T13:41:06.718Z,101409.95
2019-02-03T13:43:32.472Z,101424.13
2019-02-03T13:45:58.257Z,101413.05
2019-02-03T13:48:24.014Z,101412.60
2019-02-03T13:50:50.012Z,101421.53
2019-02-03T13:53:15.763Z,101429.18
2019-02-03T13:55:41.542Z,101433.03
2019-02-03T13:58:09.213Z,101436.20
2019-02-03T14:00:54.888Z,101443.15
2019-02-03T14:03:20.793Z,101443.15
2019-02-03T14:05:46.585Z,101454.90
2019-02-03T14:08:12.339Z,101456.95
2019-02-03T14:10:40.025Z,101466.70
2019-02-03T14:13:47.458Z,101470.10
2019-02-03T14:16:13.238Z,101473.13
2019-02-03T14:18:40.902Z,101470.70
2019-02-03T14:21:06.806Z,101466.60
2019-02-03T14:23:32.680Z,101471.73
2019-02-03T14:25:58.463Z,101466.39
2019-02-03T14:28:24.214Z,101475.38
2019-02-03T14:30:51.380Z,101487.86
2019-02-03T14:33:17.644Z,101482.77
2019-02-03T14:35:45.696Z,101485.95
2019-02-03T14:38:11.555Z,101483.28
2019-02-03T14:40:37.314Z,101501.60
2019-02-03T14:43:44.760Z,101503.08
2019-02-03T14:46:10.540Z,101500.88
2019-02-03T14:48:36.327Z,101499.66
2019-02-03T14:51:02.216Z,101502.47
2019-02-03T14:53:27.997Z,101510.73
2019-02-03T14:55:53.758Z,101499.48
2019-02-03T14:58:19.540Z,101502.52
2019-02-03T15:01:26.983Z,101508.86
2019-02-03T15:03:52.754Z,101516.43
2019-02-03T15:06:18.540Z,101511.95
2019-02-03T15:08:44.300Z,101513.22
2019-02-03T15:11:10.056Z,101515.05
2019-02-03T15:13:35.823Z,101521.39
2019-02-03T15:16:01.581Z,101512.94
2019-02-03T15:18:27.359Z,101512.94
2019-02-03T15:20:53.125Z,101515.41
2019-02-03T15:23:18.902Z,101510.69
2019-02-03T15:25:44.666Z,101512.05
2019-02-03T15:28:32.227Z,101520.19
2019-02-03T15:30:57.999Z,101516.80
2019-02-03T15:33:23.775Z,101522.98
2019-02-03T15:35:49.547Z,101520.45
2019-02-03T15:38:35.223Z,101519.88
2019-02-03T15:41:00.990Z,101519.88
2019-02-03T15:43:26.780Z,101532.14
2019-02-03T15:45:52.536Z,101532.14
2019-02-03T15:48:18.320Z,101536.61
2019-02-03T15:50:44.074Z,101539.30
2019-02-03T15:53:09.947Z,101543.32
2019-02-03T15:56:17.387Z,101548.28
2019-02-03T15:58:43.163Z,101543.32
2019-02-03T16:01:08.909Z,101556.51
2019-02-03T16:03:34.785Z,101555.68
2019-02-03T16:06:00.537Z,101552.89
2019-02-03T16:08:26.310Z,101550.95
2019-02-03T16:10:52.090Z,101553.25
2019-02-03T16:13:17.869Z,101556.42
2019-02-03T16:15:43.622Z,101562.81
2019-02-03T16:18:09.579Z,101562.58
2019-02-03T16:20:35.342Z,101557.84
2019-02-03T16:23:01.101Z,101567.75
2019-02-03T16:25:27.074Z,101569.06
2019-02-03T16:27:52.862Z,101570.76
2019-02-03T16:31:00.409Z,101565.14
2019-02-03T16:33:26.173Z,101567.17
2019-02-03T16:35:51.934Z,101575.36
2019-02-03T16:38:22.955Z,101575.27
2019-02-03T16:40:45.384Z,101582.03
2019-02-03T16:43:11.142Z,101584.24
2019-02-03T16:45:36.912Z,101580.05
2019-02-03T16:48:44.346Z,101588.41
2019-02-03T16:51:10.345Z,101591.30
2019-02-03T16:53:57.843Z,101595.41
2019-02-03T16:56:23.658Z,101600.22
2019-02-03T16:58:49.407Z,101603.58
2019-02-03T17:01:15.188Z,101609.56
2019-02-03T17:03:40.936Z,101609.69
2019-02-03T17:06:06.714Z,101622.49
2019-02-03T17:08:32.507Z,101622.98
2019-02-03T17:10:58.234Z,101618.28
2019-02-03T17:13:23.993Z,101623.14
2019-02-03T17:16:31.443Z,101622.77
2019-02-03T17:18:59.737Z,101623.87
2019-02-03T17:22:04.646Z,101626.39
2019-02-03T17:24:30.412Z,101622.03
2019-02-03T17:26:56.185Z,101622.75
2019-02-03T17:29:23.841Z,101624.91
2019-02-03T17:31:49.639Z,101625.01
2019-02-03T17:34:15.396Z,101633.20
2019-02-03T17:36:41.969Z,101633.20
2019-02-03T17:39:08.931Z,101631.62
2019-02-03T17:41:34.697Z,101636.58
2019-02-03T17:44:20.425Z,101622.70
2019-02-03T17:46:46.233Z,101622.70
2019-02-03T17:49:11.990Z,101640.53
2019-02-03T17:51:37.752Z,101643.94
2019-02-03T17:54:45.194Z,101640.44
2019-02-03T17:57:10.974Z,101641.27
2019-02-03T17:59:36.726Z,101653.36
2019-02-03T18:02:02.595Z,101656.77
2019-02-03T18:04:28.342Z,101658.09
2019-02-03T18:06:54.109Z,101659.66
2019-02-03T18:09:21.770Z,101666.22
2019-02-03T18:11:47.701Z,101661.27
2019-02-03T18:14:23.813Z,101666.19
2019-02-03T18:16:41.109Z,101668.20
2019-02-03T18:19:06.880Z,101670.39
2019-02-03T18:21:32.625Z,101670.61
2019-02-03T18:24:18.293Z,101678.17
2019-02-03T18:26:44.046Z,101679.22
2019-02-03T18:29:09.830Z,101678.41
2019-02-03T18:31:35.572Z,101679.56
2019-02-03T18:34:01.331Z,101679.44
2019-02-03T18:36:27.104Z,101680.06
2019-02-03T18:38:52.868Z,101682.17
2019-02-03T18:41:18.622Z,101676.81
2019-02-03T18:43:44.730Z,101674.45
2019-02-03T18:46:10.490Z,101684.14
2019-02-03T18:48:37.010Z,101680.89
2019-02-03T18:51:04.219Z,101681.95
2019-02-03T18:53:29.978Z,101692.23
2019-02-03T18:55:55.742Z,101692.02
2019-02-03T18:58:34.628Z,101694.18
2019-02-03T19:01:00.373Z,101694.18
2019-02-03T19:03:26.149Z,101709.34
2019-02-03T19:05:51.889Z,101707.59
2019-02-03T19:08:17.652Z,101703.84
2019-02-03T19:10:43.521Z,101700.62
2019-02-03T19:13:09.268Z,101705.73
2019-02-03T19:16:16.706Z,101711.00
2019-02-03T19:18:42.473Z,101698.09
2019-02-03T19:21:08.230Z,101704.92
2019-02-03T19:23:34.039Z,101706.36
2019-02-03T19:25:59.818Z,101709.85
2019-02-03T19:28:25.577Z,101708.53
2019-02-03T19:30:51.369Z,101716.20
2019-02-03T19:33:17.137Z,101720.44
2019-02-03T19:35:42.913Z,101722.15
2019-02-03T19:38:08.662Z,101728.09
2019-02-03T19:43:48.321Z,101728.75
2019-02-03T19:46:14.079Z,101736.07
2019-02-03T19:48:39.833Z,101730.95
2019-02-03T19:51:07.496Z,101734.23
2019-02-03T19:53:33.255Z,101730.45
2019-02-03T19:55:59.021Z,101736.19
2019-02-03T19:58:24.784Z,101740.42
2019-02-03T20:00:50.557Z,101747.69
2019-02-03T20:03:16.309Z,101755.52
2019-02-03T20:05:42.737Z,101752.27
2019-02-03T20:11:36.916Z,101774.30
2019-02-03T20:14:44.345Z,101772.52
2019-02-03T20:17:10.097Z,101772.99
2019-02-03T20:19:35.861Z,101777.75
2019-02-03T20:22:01.841Z,101771.39
2019-02-03T20:24:27.701Z,101769.88
2019-02-03T20:26:53.460Z,101778.98
2019-02-03T20:29:39.156Z,101781.80
2019-02-03T20:32:04.905Z,101781.80
2019-02-03T20:34:32.558Z,101789.95
2019-02-03T20:36:58.326Z,101781.81
2019-02-03T20:39:24.067Z,101788.16
2019-02-03T20:41:49.843Z,101792.69
2019-02-03T20:44:15.596Z,101794.30
2019-02-03T20:46:41.360Z,101794.02
2019-02-03T20:49:07.114Z,101801.22
2019-02-03T20:51:32.872Z,101804.72
2019-02-03T20:53:58.642Z,101811.33
2019-02-03T20:56:24.402Z,101808.11
2019-02-03T20:58:50.172Z,101816.25
2019-02-03T21:01:15.936Z,101817.09
2019-02-03T21:03:41.722Z,101825.05
2019-02-03T21:06:07.556Z,101830.73
2019-02-03T21:08:33.358Z,101834.28
2019-02-03T21:10:59.120Z,101833.17
2019-02-03T21:13:24.886Z,101837.06
2019-02-03T21:15:50.848Z,101836.20
2019-02-03T21:18:16.663Z,101841.02
2019-02-03T21:20:42.419Z,101838.26
2019-02-03T21:23:08.190Z,101838.64
2019-02-03T21:29:01.017Z,101841.39
2019-02-03T21:31:26.766Z,101850.00
2019-02-03T21:33:52.536Z,101852.93
2019-02-03T21:36:18.293Z,101860.56
2019-02-03T21:38:44.091Z,101867.63
2019-02-03T21:41:09.871Z,101870.82
2019-02-03T21:43:35.624Z,101869.27
2019-02-03T21:46:01.381Z,101875.30
2019-02-03T21:48:27.155Z,101882.34
2019-02-03T21:50:55.324Z,101886.69
2019-02-03T21:53:40.562Z,101881.73
2019-02-03T21:56:06.318Z,101895.63
2019-02-03T21:58:32.116Z,101901.19
2019-02-03T22:00:57.868Z,101897.64
2019-02-03T22:03:23.642Z,101896.42
2019-02-03T22:05:49.399Z,101892.02
2019-02-03T22:08:15.176Z,101892.69
2019-02-03T22:10:41.029Z,101890.55
2019-02-03T22:13:06.794Z,101882.49
2019-02-03T22:15:32.553Z,101861.66
2019-02-03T22:17:58.318Z,101881.03
2019-02-03T22:20:24.089Z,101880.69
2019-02-03T22:23:31.533Z,101892.54
2019-02-03T22:25:57.289Z,101894.03
2019-02-03T22:28:30.764Z,101893.42
2019-02-03T22:30:56.525Z,101894.92
2019-02-03T22:33:22.278Z,101898.51
2019-02-03T22:35:49.946Z,101890.77
2019-02-03T22:38:15.700Z,101892.69
2019-02-03T22:40:41.468Z,101900.64
2019-02-03T22:43:07.227Z,101901.13
2019-02-03T22:45:32.999Z,101900.66
2019-02-03T22:47:58.746Z,101898.14
2019-02-03T22:51:06.210Z,101902.41
2019-02-03T22:53:31.962Z,101906.48
2019-02-03T22:55:57.731Z,101913.56
2019-02-03T22:58:23.494Z,101918.19
2019-02-03T23:01:30.944Z,101917.91
2019-02-03T23:03:56.699Z,101922.66
2019-02-03T23:06:22.567Z,101921.09
2019-02-03T23:08:48.328Z,101922.25
2019-02-03T23:11:16.007Z,101919.28
2019-02-03T23:13:41.772Z,101917.89
2019-02-03T23:16:17.669Z,101923.09
2019-02-03T23:18:55.074Z,101920.26
2019-02-03T23:21:20.837Z,101922.91
2019-02-03T23:23:48.489Z,101925.28
2019-02-03T23:26:14.256Z,101921.20
2019-02-03T23:28:40.010Z,101928.73
2019-02-03T23:31:05.880Z,101924.66
2019-02-03T23:33:31.647Z,101925.20
2019-02-03T23:35:57.400Z,101933.92
2019-02-03T23:38:23.163Z,101931.00
2019-02-03T23:40:49.020Z,101930.61
2019-02-03T23:43:16.680Z,101940.76
2019-02-03T23:45:42.517Z,101939.50
2019-02-03T23:48:08.305Z,101940.98
2019-02-03T23:50:34.066Z,101943.13
2019-02-03T23:52:59.817Z,101944.34
2019-02-03T23:55:25.586Z,101934.20
2019-02-03T23:57:51.354Z,101941.31
